createdAt,value
2022-11-05T00:01:01.696Z,15.50
2022-11-05T00:06:23.946Z,15.50
2022-11-05T00:11:46.214Z,15.60
2022-11-05T00:16:48.424Z,15.50
2022-11-05T00:22:10.512Z,15.70
2022-11-05T00:27:12.776Z,15.70
2022-11-05T00:32:15.455Z,15.40
2022-11-05T00:37:17.660Z,15.50
2022-11-05T00:42:39.959Z,15.50
2022-11-05T00:48:02.140Z,15.50
2022-11-05T00:53:04.841Z,15.60
2022-11-05T00:58:24.546Z,15.70
2022-11-05T01:03:29.677Z,15.60
2022-11-05T01:08:32.146Z,15.70
2022-11-05T01:13:34.354Z,15.80
2022-11-05T01:18:39.140Z,15.90
2022-11-05T01:23:41.540Z,16.00
2022-11-05T01:28:43.806Z,15.80
2022-11-05T01:33:46.488Z,15.90
2022-11-05T01:38:48.714Z,15.90
2022-11-05T01:43:54.676Z,15.90
2022-11-05T01:49:08.490Z,15.90
2022-11-05T01:54:14.945Z,15.90
2022-11-05T01:59:23.821Z,15.90
2022-11-05T02:04:31.986Z,16.00
2022-11-05T02:09:43.878Z,15.90
2022-11-05T02:14:46.092Z,15.90
2022-11-05T02:36:23.558Z,15.70
2022-11-05T02:51:59.065Z,15.70
2022-11-05T02:57:03.855Z,15.90
2022-11-05T03:02:06.713Z,16.00
2022-11-05T03:23:39.730Z,16.20
2022-11-05T03:28:46.423Z,16.20
2022-11-05T03:33:51.698Z,16.30
2022-11-05T03:38:56.820Z,16.30
2022-11-05T03:44:03.693Z,16.30
2022-11-05T03:49:12.837Z,16.30
2022-11-05T03:54:15.363Z,16.50
2022-11-05T03:59:18.610Z,16.60
2022-11-05T04:04:20.930Z,16.70
2022-11-05T04:09:43.053Z,16.70
2022-11-05T04:14:45.324Z,16.60
2022-11-05T04:20:07.456Z,16.40
2022-11-05T04:25:10.385Z,16.30
2022-11-05T04:30:29.568Z,16.20
2022-11-05T04:35:36.075Z,16.20
2022-11-05T04:40:39.066Z,16.10
2022-11-05T04:45:41.571Z,16.30
2022-11-05T04:50:43.790Z,16.40
2022-11-05T04:55:45.992Z,16.30
2022-11-05T05:00:50.397Z,16.20
2022-11-05T05:05:53.916Z,16.10
2022-11-05T05:10:56.789Z,15.90
2022-11-05T05:15:59.388Z,15.70
2022-11-05T05:21:22.223Z,15.50
2022-11-05T05:26:24.517Z,15.50
2022-11-05T05:31:26.813Z,15.70
2022-11-05T05:36:29.140Z,15.80
2022-11-05T05:41:31.717Z,16.00
2022-11-05T05:46:34.251Z,16.10
2022-11-05T05:51:36.583Z,16.20
2022-11-05T05:56:38.838Z,16.30
2022-11-05T06:01:41.593Z,16.40
2022-11-05T06:06:46.856Z,16.50
2022-11-05T06:11:49.134Z,16.50
2022-11-05T06:16:51.402Z,16.50
2022-11-05T06:21:53.664Z,16.50
2022-11-05T06:26:55.860Z,16.50
2022-11-05T06:31:58.090Z,16.50
2022-11-05T06:37:00.300Z,16.60
2022-11-05T06:42:19.267Z,16.70
2022-11-05T06:47:21.829Z,16.70
2022-11-05T06:52:24.049Z,16.70
2022-11-05T06:57:26.269Z,16.80
2022-11-05T07:02:28.525Z,17.10
2022-11-05T07:07:30.763Z,17.70
2022-11-05T07:12:33.001Z,18.40
2022-11-05T07:17:35.397Z,19.30
2022-11-05T07:22:38.487Z,20.00
2022-11-05T07:27:40.761Z,20.40
2022-11-05T07:32:42.957Z,20.90
2022-11-05T07:37:48.071Z,21.00
2022-11-05T07:42:53.120Z,21.30
2022-11-05T07:47:59.349Z,21.70
2022-11-05T07:53:03.395Z,22.20
2022-11-05T07:58:06.024Z,22.40
2022-11-05T08:03:18.311Z,22.60
2022-11-05T08:08:21.112Z,22.70
2022-11-05T08:13:23.350Z,23.40
2022-11-05T08:18:31.419Z,23.80
2022-11-05T08:23:33.668Z,24.30
2022-11-05T08:28:35.881Z,24.40
2022-11-05T08:33:38.252Z,23.70
2022-11-05T08:38:40.456Z,23.80
2022-11-05T08:43:43.196Z,24.10
2022-11-05T08:48:45.801Z,24.60
2022-11-05T08:53:48.360Z,24.50
2022-11-05T08:58:50.589Z,23.90
2022-11-05T09:03:52.982Z,22.80
2022-11-05T09:08:55.624Z,22.00
2022-11-05T09:13:57.827Z,20.80
2022-11-05T09:19:00.372Z,19.80
2022-11-05T09:24:02.666Z,19.30
2022-11-05T09:29:04.875Z,19.10
2022-11-05T09:34:07.318Z,18.80
2022-11-05T09:39:10.005Z,18.30
2022-11-05T09:44:20.387Z,18.50
2022-11-05T09:49:35.585Z,18.30
2022-11-05T09:54:38.118Z,18.00
2022-11-05T09:59:47.068Z,18.00
2022-11-05T10:04:55.339Z,18.10
2022-11-05T10:10:01.949Z,17.90
2022-11-05T10:25:35.832Z,17.90
2022-11-05T10:30:38.452Z,17.10
2022-11-05T10:35:49.498Z,17.00
2022-11-05T10:47:00.995Z,17.50
2022-11-05T10:52:19.075Z,17.90
2022-11-05T10:57:33.942Z,17.90
2022-11-05T11:02:36.470Z,17.90
2022-11-05T11:07:38.895Z,18.00
2022-11-05T11:12:43.714Z,18.00
2022-11-05T11:17:46.282Z,18.10
2022-11-05T11:23:13.974Z,18.30
2022-11-05T11:33:30.972Z,18.20
2022-11-05T11:38:36.514Z,17.70
2022-11-05T11:43:41.722Z,17.80
2022-11-05T11:48:47.722Z,17.90
2022-11-05T11:53:50.174Z,18.10
2022-11-05T11:58:54.847Z,18.30
2022-11-05T12:25:41.982Z,17.90
2022-11-05T12:30:58.814Z,17.70
2022-11-05T12:36:26.578Z,18.10
2022-11-05T12:41:38.472Z,18.00
2022-11-05T12:47:20.694Z,17.70
2022-11-05T12:57:38.184Z,17.40
2022-11-05T13:03:20.558Z,17.60
2022-11-05T13:08:31.356Z,17.30
2022-11-05T13:18:54.410Z,17.10
2022-11-05T13:29:27.425Z,17.20
2022-11-05T13:34:36.400Z,17.00
2022-11-05T13:39:59.301Z,17.00
2022-11-05T13:50:51.935Z,17.20
2022-11-05T14:06:25.938Z,17.40
2022-11-05T14:11:33.281Z,17.90
2022-11-05T14:17:14.152Z,18.10
2022-11-05T14:27:44.473Z,17.40
2022-11-05T14:46:10.769Z,17.30
2022-11-05T14:51:36.031Z,16.90
2022-11-05T14:56:44.622Z,16.50
2022-11-05T15:23:00.696Z,16.20
2022-11-05T15:33:22.145Z,15.90
2022-11-05T15:43:35.053Z,15.60
2022-11-05T15:48:37.510Z,15.80
2022-11-05T15:54:29.563Z,16.00
2022-11-05T15:59:25.686Z,15.60
2022-11-05T16:04:34.542Z,15.70
2022-11-05T16:09:41.114Z,15.60
2022-11-05T16:14:43.592Z,15.20
2022-11-05T16:19:46.669Z,15.50
2022-11-05T16:24:49.669Z,15.70
2022-11-05T16:29:55.945Z,15.40
2022-11-05T16:35:01.557Z,15.50
2022-11-05T16:40:15.090Z,15.60
2022-11-05T16:45:21.053Z,15.40
2022-11-05T16:50:26.558Z,15.50
2022-11-05T16:55:30.698Z,15.70
2022-11-05T17:00:33.613Z,15.70
2022-11-05T17:05:35.894Z,15.70
2022-11-05T17:10:38.215Z,15.70
2022-11-05T17:15:42.504Z,15.50
2022-11-05T17:20:48.727Z,15.70
2022-11-05T17:25:53.001Z,15.60
2022-11-05T17:30:56.523Z,15.70
2022-11-05T17:35:58.963Z,15.70
2022-11-05T17:41:01.810Z,15.60
2022-11-05T17:46:08.946Z,15.40
2022-11-05T17:51:13.175Z,15.40
2022-11-05T17:56:28.791Z,15.40
2022-11-05T18:01:37.455Z,15.50
2022-11-05T18:06:41.228Z,15.60
2022-11-05T18:11:43.866Z,15.60
2022-11-05T18:16:46.161Z,15.70
2022-11-05T18:21:48.402Z,15.80
2022-11-05T18:26:51.200Z,15.90
2022-11-05T18:31:53.463Z,16.00
2022-11-05T18:36:56.780Z,16.10
2022-11-05T18:41:59.128Z,16.40
2022-11-05T18:47:01.475Z,16.50
2022-11-05T18:52:04.228Z,16.70
2022-11-05T18:57:07.381Z,16.80
2022-11-05T19:02:11.593Z,16.80
2022-11-05T19:07:14.231Z,16.80
2022-11-05T19:12:16.610Z,16.90
2022-11-05T19:17:18.939Z,17.00
2022-11-05T19:22:21.232Z,17.10
2022-11-05T19:42:18.343Z,17.30
2022-11-05T19:47:21.195Z,17.30
2022-11-05T19:52:23.468Z,17.40
2022-11-05T19:57:25.690Z,17.30
2022-11-05T20:02:28.200Z,17.40
2022-11-05T20:07:30.844Z,17.30
2022-11-05T20:12:33.270Z,17.30
2022-11-05T20:17:35.525Z,17.30
2022-11-05T20:22:38.450Z,17.20
2022-11-05T20:27:42.076Z,17.20
2022-11-05T20:32:44.440Z,17.20
2022-11-05T20:37:51.158Z,17.20
2022-11-05T20:42:56.139Z,17.10
2022-11-05T20:47:58.858Z,17.10
2022-11-05T20:53:01.157Z,16.90
2022-11-05T20:58:03.407Z,16.90
2022-11-05T21:03:06.162Z,16.90
2022-11-05T21:08:08.377Z,16.90
2022-11-05T21:13:10.718Z,16.90
2022-11-05T21:18:13.746Z,16.90
2022-11-05T21:23:16.722Z,16.90
2022-11-05T21:28:19.111Z,16.90
2022-11-05T21:33:21.380Z,16.80
2022-11-05T21:38:24.002Z,16.80
2022-11-05T21:43:26.219Z,16.80
2022-11-05T21:48:29.474Z,16.80
2022-11-05T21:53:51.660Z,16.80
2022-11-05T21:59:13.834Z,16.80
2022-11-05T22:04:16.447Z,16.80
2022-11-05T22:09:18.670Z,16.70
2022-11-05T22:14:21.513Z,16.70
2022-11-05T22:19:24.910Z,16.80
2022-11-05T22:24:30.572Z,16.70
2022-11-05T22:29:33.122Z,16.70
2022-11-05T22:34:35.336Z,16.70
2022-11-05T22:39:37.539Z,16.70
2022-11-05T22:44:39.755Z,16.60
2022-11-05T22:49:42.231Z,16.60
2022-11-05T22:54:44.427Z,16.60
2022-11-05T22:59:46.722Z,16.50
2022-11-05T23:04:50.878Z,16.50
2022-11-05T23:10:13.004Z,16.40
2022-11-05T23:15:35.140Z,16.40
2022-11-05T23:20:57.249Z,16.40
2022-11-05T23:26:20.704Z,16.40
2022-11-05T23:31:42.804Z,16.40
2022-11-05T23:37:04.898Z,16.40
2022-11-05T23:42:27.028Z,16.30
2022-11-05T23:47:49.532Z,16.30
2022-11-05T23:52:53.971Z,16.20
2022-11-05T23:57:56.178Z,16.30
